DAL1320 KDTW-KCLE
Flight info
| Callsign | DAL1320 |
|---|---|
| Flight time | 0h 24m |
| Altitude | 15000 |
| Route | KZLOV2 WINNZ BRWNZ4 |
| Aircraft | B739/M-SDE2E3FGHIRWXY/LB1 |
Departure
| Time | 2026-05-04 17:05 |
|---|---|
| Airport | Detroit Metropolitan Wayne County Airport (KDTW) |
Arrival
| Time | 2026-05-04 17:29 |
|---|---|
| Airport | Cleveland Hopkins International Airport (KCLE) |
| Time | Latitude | Longitude | Altitude | Speed | Heading |
|---|---|---|---|---|---|
| 2026-05-04 16:37 | 42.20432 | -83.36027 | 650 ft | 0 kts | 298° |
| 2026-05-04 16:49 | 42.20414 | -83.35972 | 651 ft | 4 kts | 285° |
| 2026-05-04 16:49 | 42.20418 | -83.35908 | 651 ft | 3 kts | 210° |
| 2026-05-04 16:50 | 42.20420 | -83.35906 | 651 ft | 0 kts | 208° |
| 2026-05-04 16:52 | 42.20415 | -83.35909 | 649 ft | 2 kts | 208° |
| 2026-05-04 16:52 | 42.20391 | -83.35927 | 649 ft | 6 kts | 209° |
| 2026-05-04 16:53 | 42.20311 | -83.35986 | 648 ft | 6 kts | 207° |
| 2026-05-04 16:53 | 42.20186 | -83.36013 | 648 ft | 6 kts | 167° |
| 2026-05-04 16:54 | 42.20165 | -83.35969 | 648 ft | 6 kts | 95° |
| 2026-05-04 16:55 | 42.20172 | -83.35492 | 648 ft | 20 kts | 88° |
| 2026-05-04 16:55 | 42.20209 | -83.35173 | 649 ft | 14 kts | 33° |
| 2026-05-04 16:56 | 42.20372 | -83.35059 | 648 ft | 13 kts | 26° |
| 2026-05-04 16:56 | 42.20538 | -83.34827 | 648 ft | 12 kts | 28° |
| 2026-05-04 16:57 | 42.20608 | -83.34774 | 649 ft | 11 kts | 29° |
| 2026-05-04 16:57 | 42.20745 | -83.34675 | 648 ft | 11 kts | 19° |
| 2026-05-04 16:58 | 42.20955 | -83.34633 | 649 ft | 12 kts | 32° |
| 2026-05-04 16:58 | 42.21034 | -83.34573 | 648 ft | 14 kts | 28° |
| 2026-05-04 16:59 | 42.21220 | -83.34436 | 648 ft | 16 kts | 26° |
| 2026-05-04 17:00 | 42.21632 | -83.34163 | 648 ft | 21 kts | 8° |
| 2026-05-04 17:00 | 42.22033 | -83.34033 | 648 ft | 20 kts | 29° |
| 2026-05-04 17:01 | 42.22263 | -83.33866 | 648 ft | 18 kts | 30° |
| 2026-05-04 17:01 | 42.22479 | -83.33706 | 649 ft | 17 kts | 30° |
| 2026-05-04 17:02 | 42.22680 | -83.33557 | 648 ft | 16 kts | 29° |
| 2026-05-04 17:02 | 42.22776 | -83.33528 | 648 ft | 2 kts | 311° |
| 2026-05-04 17:03 | 42.22785 | -83.33547 | 648 ft | 2 kts | 301° |
| 2026-05-04 17:03 | 42.22793 | -83.33568 | 648 ft | 3 kts | 299° |
| 2026-05-04 17:03 | 42.22779 | -83.33652 | 650 ft | 7 kts | 209° |
| 2026-05-04 17:04 | 42.22606 | -83.33779 | 651 ft | 51 kts | 209° |
| 2026-05-04 17:04 | 42.21240 | -83.34776 | 669 ft | 158 kts | 210° |
| 2026-05-04 17:05 | 42.19338 | -83.36215 | 1802 ft | 161 kts | 201° |
| 2026-05-04 17:05 | 42.17094 | -83.36209 | 3096 ft | 167 kts | 179° |
| 2026-05-04 17:06 | 42.14514 | -83.35987 | 3723 ft | 204 kts | 180° |
| 2026-05-04 17:06 | 42.13016 | -83.35929 | 3955 ft | 226 kts | 184° |
| 2026-05-04 17:07 | 42.09646 | -83.35787 | 4924 ft | 255 kts | 181° |
| 2026-05-04 17:07 | 42.09064 | -83.35754 | 5117 ft | 257 kts | 183° |
| 2026-05-04 17:07 | 42.06057 | -83.35490 | 6412 ft | 267 kts | 172° |
| 2026-05-04 17:07 | 42.04367 | -83.34316 | 6922 ft | 284 kts | 144° |
| 2026-05-04 17:08 | 42.03244 | -83.32116 | 6975 ft | 298 kts | 114° |
| 2026-05-04 17:08 | 42.02351 | -83.26582 | 6995 ft | 304 kts | 103° |
| 2026-05-04 17:08 | 42.01990 | -83.23791 | 6982 ft | 303 kts | 104° |
| 2026-05-04 17:09 | 42.01739 | -83.21948 | 6988 ft | 302 kts | 104° |
| 2026-05-04 17:09 | 42.01332 | -83.18259 | 6976 ft | 305 kts | 90° |
| 2026-05-04 17:09 | 42.01533 | -83.16327 | 7071 ft | 311 kts | 79° |
| 2026-05-04 17:10 | 42.02407 | -83.10586 | 8521 ft | 314 kts | 80° |
| 2026-05-04 17:10 | 42.03601 | -83.01833 | 9979 ft | 321 kts | 81° |
| 2026-05-04 17:11 | 42.03995 | -82.98881 | 9983 ft | 319 kts | 81° |
| 2026-05-04 17:11 | 42.04383 | -82.95970 | 9996 ft | 320 kts | 81° |
| 2026-05-04 17:11 | 42.05170 | -82.90064 | 10001 ft | 321 kts | 81° |
| 2026-05-04 17:12 | 42.05564 | -82.87101 | 10008 ft | 322 kts | 81° |
| 2026-05-04 17:12 | 42.06350 | -82.81171 | 10005 ft | 322 kts | 81° |
| 2026-05-04 17:13 | 42.06002 | -82.72528 | 10051 ft | 309 kts | 128° |
| 2026-05-04 17:14 | 42.00798 | -82.66451 | 10669 ft | 356 kts | 146° |
| 2026-05-04 17:14 | 41.98828 | -82.64379 | 11253 ft | 362 kts | 146° |
| 2026-05-04 17:14 | 41.94851 | -82.60132 | 12649 ft | 368 kts | 145° |
| 2026-05-04 17:15 | 41.92953 | -82.57787 | 13368 ft | 376 kts | 130° |
| 2026-05-04 17:15 | 41.91068 | -82.51191 | 14717 ft | 390 kts | 105° |
| 2026-05-04 17:16 | 41.89801 | -82.44345 | 14993 ft | 361 kts | 107° |
| 2026-05-04 17:16 | 41.87958 | -82.34984 | 14070 ft | 350 kts | 107° |
| 2026-05-04 17:17 | 41.87330 | -82.31820 | 13590 ft | 352 kts | 107° |
| 2026-05-04 17:17 | 41.85466 | -82.22421 | 12401 ft | 344 kts | 108° |
| 2026-05-04 17:18 | 41.84572 | -82.19488 | 11976 ft | 338 kts | 123° |
| 2026-05-04 17:18 | 41.82145 | -82.14307 | 11697 ft | 317 kts | 126° |
| 2026-05-04 17:19 | 41.79865 | -82.09466 | 11385 ft | 301 kts | 126° |
| 2026-05-04 17:19 | 41.77673 | -82.04738 | 10724 ft | 300 kts | 126° |
| 2026-05-04 17:20 | 41.75496 | -82.00003 | 10114 ft | 297 kts | 126° |
| 2026-05-04 17:20 | 41.73341 | -81.95312 | 9499 ft | 294 kts | 126° |
| 2026-05-04 17:20 | 41.72271 | -81.92986 | 9180 ft | 292 kts | 126° |
| 2026-05-04 17:21 | 41.70120 | -81.88409 | 8547 ft | 289 kts | 127° |
| 2026-05-04 17:21 | 41.67968 | -81.83882 | 7929 ft | 286 kts | 126° |
| 2026-05-04 17:22 | 41.66921 | -81.81626 | 7635 ft | 285 kts | 126° |
| 2026-05-04 17:22 | 41.65879 | -81.79381 | 7338 ft | 283 kts | 126° |
| 2026-05-04 17:23 | 41.62821 | -81.73110 | 6747 ft | 249 kts | 141° |
| 2026-05-04 17:23 | 41.61410 | -81.72005 | 6453 ft | 229 kts | 167° |
| 2026-05-04 17:23 | 41.58509 | -81.71124 | 6229 ft | 201 kts | 175° |
| 2026-05-04 17:24 | 41.57177 | -81.70770 | 6101 ft | 190 kts | 175° |
| 2026-05-04 17:24 | 41.53384 | -81.69763 | 5103 ft | 182 kts | 177° |
| 2026-05-04 17:25 | 41.52188 | -81.69846 | 4809 ft | 169 kts | 204° |
| 2026-05-04 17:25 | 41.50289 | -81.71551 | 4086 ft | 166 kts | 220° |
| 2026-05-04 17:26 | 41.48654 | -81.73673 | 3541 ft | 162 kts | 228° |
| 2026-05-04 17:26 | 41.46552 | -81.77126 | 2694 ft | 156 kts | 225° |
| 2026-05-04 17:27 | 41.45170 | -81.79208 | 2108 ft | 142 kts | 227° |
| 2026-05-04 17:27 | 41.43963 | -81.81069 | 1667 ft | 129 kts | 228° |
| 2026-05-04 17:28 | 41.42738 | -81.83019 | 1223 ft | 143 kts | 226° |
| 2026-05-04 17:29 | 41.40885 | -81.85941 | 787 ft | 117 kts | 227° |
| 2026-05-04 17:29 | 41.40048 | -81.87245 | 774 ft | 21 kts | 230° |
| 2026-05-04 17:30 | 41.39971 | -81.87115 | 771 ft | 12 kts | 59° |
| 2026-05-04 17:31 | 41.39964 | -81.86927 | 772 ft | 12 kts | 138° |
| 2026-05-04 17:31 | 41.39757 | -81.86696 | 773 ft | 14 kts | 136° |
| 2026-05-04 17:32 | 41.39807 | -81.86494 | 773 ft | 13 kts | 49° |